Time;durP1;ratioP1;P1;durP2;ratioP2;P2;SDS_P1;SDS_P2;PMS_P1;PMS_P2;Temp;Humidity;BMP_temperature;BMP_pressure;BME280_temperature;BME280_humidity;BME280_pressure;Samples;Min_cycle;Max_cycle;Signal;HPM_P1;HPM_P2
2021/09/22 00:03:58;;;;;;;3.90;2.00;;;22.70;44.10;;;;;;5005384;28;20611;-67
2021/09/22 00:06:25;;;;;;;3.65;1.95;;;22.70;44.10;;;;;;5007881;28;20160;-67
2021/09/22 00:08:52;;;;;;;2.22;2.03;;;22.70;44.10;;;;;;4990083;28;20084;-68
2021/09/22 00:11:20;;;;;;;2.33;1.90;;;22.70;44.10;;;;;;4995378;28;20042;-67
2021/09/22 00:13:47;;;;;;;1.88;1.67;;;22.70;44.10;;;;;;5003976;28;20076;-67
2021/09/22 00:16:14;;;;;;;2.35;1.63;;;22.70;44.10;;;;;;5007678;28;20113;-67
2021/09/22 00:18:41;;;;;;;2.17;1.98;;;22.70;44.10;;;;;;5007717;28;20109;-68
2021/09/22 00:21:49;;;;;;;1.77;1.67;;;22.70;44.10;;;;;;4995618;28;20144;-67
2021/09/22 00:24:16;;;;;;;1.60;1.50;;;22.70;44.10;;;;;;5008001;28;20061;-67
2021/09/22 00:26:43;;;;;;;2.55;1.73;;;22.70;44.10;;;;;;5010362;28;20526;-67
2021/09/22 00:29:10;;;;;;;1.70;1.60;;;22.70;44.10;;;;;;5010990;28;20526;-68
2021/09/22 00:31:37;;;;;;;2.15;1.60;;;22.70;44.10;;;;;;4981682;28;20038;-67
2021/09/22 00:34:05;;;;;;;2.08;1.75;;;22.70;44.10;;;;;;4992419;28;20133;-64
2021/09/22 00:36:33;;;;;;;2.50;1.83;;;22.70;44.00;;;;;;5010965;28;20137;-67
2021/09/22 00:39:00;;;;;;;2.95;2.13;;;22.80;44.10;;;;;;5010500;28;20045;-68
2021/09/22 00:41:43;;;;;;;1.92;1.70;;;22.80;44.10;;;;;;4999683;28;20503;-68
2021/09/22 00:44:10;;;;;;;2.25;1.88;;;22.80;44.00;;;;;;5010234;28;20077;-67
2021/09/22 00:46:38;;;;;;;3.58;1.67;;;22.70;44.00;;;;;;5010204;28;20129;-68
2021/09/22 00:49:05;;;;;;;2.17;1.60;;;22.70;44.00;;;;;;5011053;28;20049;-68
2021/09/22 00:51:32;;;;;;;2.63;1.90;;;22.70;44.00;;;;;;4982482;28;20077;-68
2021/09/22 00:54:00;;;;;;;2.40;1.67;;;22.70;44.00;;;;;;5009799;28;20594;-67
2021/09/22 00:56:28;;;;;;;1.95;1.80;;;22.80;44.00;;;;;;5010435;28;20050;-67
2021/09/22 00:58:55;;;;;;;2.42;2.13;;;22.80;44.00;;;;;;5010413;28;20467;-67
2021/09/22 01:01:22;;;;;;;1.75;1.52;;;22.70;43.90;;;;;;5001881;28;20129;-67
2021/09/22 01:03:50;;;;;;;1.60;1.50;;;22.80;44.00;;;;;;4990103;28;20053;-68
2021/09/22 01:06:17;;;;;;;1.77;1.67;;;22.70;44.10;;;;;;5010737;28;20165;-67
2021/09/22 01:08:44;;;;;;;2.10;1.88;;;22.70;44.10;;;;;;5009898;28;20137;-68
2021/09/22 01:11:11;;;;;;;1.88;1.65;;;22.70;44.20;;;;;;5000829;28;20045;-68
2021/09/22 01:13:39;;;;;;;1.25;1.13;;;22.70;44.20;;;;;;5008260;28;20050;-68
2021/09/22 01:16:08;;;;;;;4.57;1.85;;;22.70;44.30;;;;;;4992768;28;20046;-67
2021/09/22 01:18:35;;;;;;;1.85;1.63;;;22.70;44.30;;;;;;5010530;28;20048;-68
2021/09/22 01:21:05;;;;;;;1.75;1.50;;;22.70;44.30;;;;;;4985076;28;20152;-67
2021/09/22 01:23:32;;;;;;;3.67;2.13;;;22.70;44.30;;;;;;4989288;28;20045;-68
2021/09/22 01:25:59;;;;;;;1.80;1.58;;;22.70;44.40;;;;;;5011771;28;20050;-67
2021/09/22 01:28:29;;;;;;;1.85;1.65;;;22.70;44.40;;;;;;5013553;28;20042;-67
2021/09/22 01:31:01;;;;;;;1.50;1.40;;;22.70;44.40;;;;;;4993231;28;20134;-64
2021/09/22 01:33:29;;;;;;;1.85;1.50;;;22.70;44.40;;;;;;5009414;28;20737;-68
2021/09/22 01:35:56;;;;;;;2.17;1.50;;;22.60;44.30;;;;;;5014263;28;20045;-68
2021/09/22 01:38:26;;;;;;;2.35;1.70;;;22.70;44.50;;;;;;5013541;28;20089;-68
2021/09/22 01:41:01;;;;;;;1.45;1.35;;;22.70;44.40;;;;;;5006397;28;20065;-67
2021/09/22 01:43:32;;;;;;;2.63;1.98;;;22.70;44.40;;;;;;5008310;28;20071;-67
2021/09/22 01:46:00;;;;;;;;;;;22.70;44.40;;;;;;5009684;28;20042;-68
2021/09/22 01:48:28;;;;;;;1.48;1.38;;;22.70;44.30;;;;;;5009844;28;20319;-67
2021/09/22 01:50:57;;;;;;;1.60;1.50;;;22.70;44.30;;;;;;4999787;28;20053;-67
2021/09/22 01:53:24;;;;;;;1.90;1.58;;;22.70;44.30;;;;;;5008374;28;20108;-68
2021/09/22 01:55:53;;;;;;;2.08;1.70;;;22.70;44.30;;;;;;5009058;28;20053;-67
2021/09/22 01:58:21;;;;;;;1.98;1.63;;;22.70;44.30;;;;;;5008885;28;20050;-65
2021/09/22 02:03:57;;;;;;;1.90;1.73;;;22.70;44.30;;;;;;5005502;28;20042;-68
2021/09/22 02:06:24;;;;;;;2.33;1.60;;;22.70;44.30;;;;;;5008859;28;20050;-68
2021/09/22 02:08:51;;;;;;;2.00;1.70;;;22.70;44.30;;;;;;5009303;28;20054;-68
2021/09/22 02:11:18;;;;;;;2.08;1.77;;;22.70;44.30;;;;;;4983795;28;20100;-67
2021/09/22 02:13:45;;;;;;;1.40;1.30;;;22.70;44.20;;;;;;4989026;28;20105;-67
2021/09/22 02:16:12;;;;;;;2.05;1.85;;;22.70;44.20;;;;;;5009111;28;20136;-67
2021/09/22 02:18:39;;;;;;;1.73;1.63;;;22.70;44.20;;;;;;5009427;28;20042;-68
2021/09/22 02:21:31;;;;;;;1.67;1.45;;;22.70;44.20;;;;;;4999103;28;20199;-65
2021/09/22 02:23:58;;;;;;;1.90;1.77;;;22.70;44.20;;;;;;4989365;28;20108;-67
2021/09/22 02:26:25;;;;;;;2.85;1.52;;;22.70;44.20;;;;;;5008713;28;20133;-68
2021/09/22 02:28:52;;;;;;;2.05;1.92;;;22.70;44.20;;;;;;5008330;28;20133;-68
2021/09/22 02:31:19;;;;;;;1.42;1.33;;;22.70;44.20;;;;;;4980190;28;20041;-67
2021/09/22 02:33:46;;;;;;;2.00;1.83;;;22.70;44.20;;;;;;5005935;28;20442;-68
2021/09/22 02:36:14;;;;;;;1.40;1.30;;;22.70;44.10;;;;;;5009190;28;20775;-68
2021/09/22 02:38:41;;;;;;;2.20;1.80;;;22.70;44.10;;;;;;5008676;28;20277;-68
2021/09/22 02:41:31;;;;;;;1.65;1.55;;;22.70;44.20;;;;;;4998719;28;20545;-65
2021/09/22 02:44:00;;;;;;;2.27;1.53;;;22.70;44.20;;;;;;4990295;28;20046;-68
2021/09/22 02:46:28;;;;;;;1.87;1.73;;;22.70;44.30;;;;;;5007812;28;20310;-68
2021/09/22 02:48:55;;;;;;;2.33;1.42;;;22.70;44.40;;;;;;5008668;28;20077;-68
2021/09/22 02:51:22;;;;;;;1.25;1.17;;;22.70;44.40;;;;;;4997059;28;20084;-68
2021/09/22 02:53:50;;;;;;;1.73;1.60;;;22.70;44.50;;;;;;5006467;28;20491;-67
2021/09/22 02:56:17;;;;;;;1.30;1.23;;;22.60;44.50;;;;;;5008241;28;20152;-68
2021/09/22 02:58:44;;;;;;;1.50;1.40;;;22.60;44.50;;;;;;4992054;28;20053;-67
2021/09/22 03:01:11;;;;;;;1.35;1.25;;;22.60;44.50;;;;;;4997110;28;20613;-65
2021/09/22 03:03:39;;;;;;;1.48;1.38;;;22.60;44.50;;;;;;5006492;28;20049;-68
2021/09/22 03:06:06;;;;;;;1.52;1.42;;;22.60;44.50;;;;;;5008529;28;20138;-68
2021/09/22 03:08:33;;;;;;;1.67;1.58;;;22.60;44.60;;;;;;5008380;28;20462;-68
2021/09/22 03:11:18;;;;;;;1.77;1.65;;;22.60;44.50;;;;;;4980106;28;20050;-64
2021/09/22 03:13:45;;;;;;;1.20;1.10;;;22.60;44.50;;;;;;5007424;28;20139;-68
2021/09/22 03:16:12;;;;;;;2.85;1.40;;;22.60;44.60;;;;;;5008040;28;20471;-68
2021/09/22 03:18:40;;;;;;;1.42;1.33;;;22.60;44.50;;;;;;4990755;28;20401;-67
2021/09/22 03:21:07;;;;;;;1.77;1.33;;;22.60;44.50;;;;;;4999905;28;20078;-64
2021/09/22 03:23:34;;;;;;;1.65;1.55;;;22.70;44.60;;;;;;4988207;28;20156;-67
2021/09/22 03:26:01;;;;;;;1.70;1.60;;;22.60;44.50;;;;;;5008557;28;20136;-68
2021/09/22 03:28:28;;;;;;;1.42;1.30;;;22.60;44.50;;;;;;5007477;28;20046;-65
2021/09/22 03:31:27;;;;;;;1.50;1.40;;;22.70;44.50;;;;;;5000312;28;20042;-67
2021/09/22 03:33:54;;;;;;;1.40;1.20;;;22.60;44.50;;;;;;5007062;28;20085;-64
2021/09/22 03:36:21;;;;;;;1.40;1.30;;;22.60;44.50;;;;;;4987369;28;20540;-68
2021/09/22 03:38:48;;;;;;;1.55;1.40;;;22.60;44.50;;;;;;4998134;28;20049;-64
2021/09/22 03:41:15;;;;;;;1.30;1.20;;;22.60;44.50;;;;;;4993099;28;20056;-67
2021/09/22 03:43:43;;;;;;;1.63;1.52;;;22.70;44.50;;;;;;4993543;28;20058;-67
2021/09/22 03:46:10;;;;;;;1.40;1.30;;;22.60;44.40;;;;;;4988999;28;20042;-68
2021/09/22 03:48:37;;;;;;;1.40;1.20;;;22.70;44.50;;;;;;4999891;28;20262;-67
2021/09/22 03:54:57;;;;;;;1.15;1.05;;;22.60;44.40;;;;;;4991691;28;20472;-67
2021/09/22 03:57:24;;;;;;;1.98;1.75;;;22.70;44.40;;;;;;4976111;28;20140;-67
2021/09/22 03:59:51;;;;;;;1.38;1.27;;;22.70;44.40;;;;;;4993322;28;20150;-67
2021/09/22 04:02:18;;;;;;;1.65;1.55;;;22.70;44.40;;;;;;4985595;28;20118;-67
2021/09/22 04:04:46;;;;;;;1.17;1.08;;;22.70;44.40;;;;;;4993658;28;20049;-67
2021/09/22 04:07:13;;;;;;;1.10;1.10;;;22.70;44.40;;;;;;4994332;28;20057;-67
2021/09/22 04:09:41;;;;;;;1.40;1.30;;;22.70;44.40;;;;;;5009453;28;20422;-67
2021/09/22 04:12:08;;;;;;;1.50;1.40;;;22.70;44.40;;;;;;5001446;28;20487;-67
2021/09/22 04:14:35;;;;;;;1.00;1.00;;;22.70;44.40;;;;;;4983978;28;20387;-67
2021/09/22 04:17:02;;;;;;;1.15;1.05;;;22.70;44.40;;;;;;5001719;28;20046;-67
2021/09/22 04:19:41;;;;;;;1.17;1.10;;;22.70;44.50;;;;;;5010453;28;20476;-67
2021/09/22 04:22:08;;;;;;;2.00;1.58;;;22.70;44.50;;;;;;5000457;28;20070;-67
2021/09/22 04:24:35;;;;;;;1.48;1.38;;;22.60;44.50;;;;;;5011288;28;20569;-68
2021/09/22 04:27:02;;;;;;;1.75;1.27;;;22.60;45.10;;;;;;4993908;28;20056;-67
2021/09/22 04:29:29;;;;;;;1.33;1.23;;;22.70;44.60;;;;;;4992573;28;20129;-64
2021/09/22 04:31:57;;;;;;;1.50;1.40;;;22.60;44.60;;;;;;4982348;28;20069;-67
2021/09/22 04:34:24;;;;;;;1.75;1.10;;;22.60;44.60;;;;;;4992263;28;20049;-68
2021/09/22 04:36:51;;;;;;;1.83;1.70;;;22.60;44.70;;;;;;5011442;28;20467;-68
2021/09/22 04:39:18;;;;;;;1.58;1.38;;;22.60;44.60;;;;;;5010711;28;20054;-67
2021/09/22 04:41:46;;;;;;;1.42;1.33;;;22.60;44.60;;;;;;5000266;28;20046;-67
2021/09/22 04:44:13;;;;;;;1.65;1.55;;;22.60;44.60;;;;;;5001947;28;20082;-68
2021/09/22 04:46:40;;;;;;;1.30;1.20;;;22.60;44.60;;;;;;5004878;28;20045;-68
2021/09/22 04:49:08;;;;;;;1.25;1.10;;;22.60;44.60;;;;;;5002345;28;20052;-65
2021/09/22 04:51:35;;;;;;;2.15;1.63;;;22.60;44.60;;;;;;4997125;28;20042;-64
2021/09/22 04:54:02;;;;;;;2.13;1.20;;;22.60;45.20;;;;;;5004899;28;20077;-68
2021/09/22 04:56:29;;;;;;;1.60;1.50;;;22.70;44.60;;;;;;5010122;28;20649;-64
2021/09/22 04:58:56;;;;;;;1.30;1.20;;;22.60;44.60;;;;;;5009643;28;20054;-68
2021/09/22 05:01:47;;;;;;;1.05;0.95;;;22.60;44.50;;;;;;4999250;28;20045;-65
2021/09/22 05:04:15;;;;;;;1.23;1.13;;;22.70;44.60;;;;;;5000586;28;20068;-68
2021/09/22 05:06:42;;;;;;;1.55;1.45;;;22.60;44.50;;;;;;5009625;28;20053;-68
2021/09/22 05:09:09;;;;;;;2.28;1.50;;;22.70;44.50;;;;;;4992141;28;20041;-68
2021/09/22 05:11:36;;;;;;;1.35;1.25;;;22.70;44.30;;;;;;4998293;28;20042;-68
2021/09/22 05:14:04;;;;;;;1.40;1.30;;;22.70;44.20;;;;;;5001288;28;20069;-68
2021/09/22 05:16:31;;;;;;;1.35;1.25;;;22.70;44.10;;;;;;5004490;28;20049;-67
2021/09/22 05:18:58;;;;;;;1.27;1.17;;;22.70;44.20;;;;;;5001640;28;20045;-69
2021/09/22 05:21:25;;;;;;;1.52;1.40;;;22.70;44.40;;;;;;5006029;28;20495;-70
2021/09/22 05:23:53;;;;;;;1.25;1.13;;;22.70;44.60;;;;;;5018542;28;20079;-64
2021/09/22 05:26:20;;;;;;;1.63;1.17;;;22.70;44.80;;;;;;5000618;28;20058;-68
2021/09/22 05:28:47;;;;;;;1.25;1.17;;;22.70;44.90;;;;;;5018151;28;20064;-64
2021/09/22 05:31:14;;;;;;;1.95;1.10;;;22.70;44.90;;;;;;5018187;28;20041;-65
2021/09/22 05:33:41;;;;;;;1.55;1.45;;;22.70;45.00;;;;;;5018935;28;20049;-66
2021/09/22 05:36:08;;;;;;;1.35;1.13;;;22.70;45.00;;;;;;4983757;28;21006;-68
2021/09/22 05:38:35;;;;;;;1.33;1.08;;;22.70;45.00;;;;;;4991717;28;21755;-69
2021/09/22 05:41:04;;;;;;;3.17;1.17;;;22.70;45.00;;;;;;4992462;28;20185;-69
2021/09/22 05:43:34;;;;;;;1.38;1.27;;;22.80;45.10;;;;;;4990966;28;20034;-65
2021/09/22 05:46:01;;;;;;;1.57;1.40;;;22.70;44.90;;;;;;4976120;28;20652;-66
2021/09/22 05:48:28;;;;;;;3.42;1.33;;;22.80;44.90;;;;;;4998820;28;20341;-66
2021/09/22 05:51:10;;;;;;;2.28;1.55;;;22.80;45.00;;;;;;4994404;28;20034;-66
2021/09/22 05:53:40;;;;;;;3.30;1.20;;;22.80;44.80;;;;;;4977725;28;20121;-66
2021/09/22 05:56:07;;;;;;;2.05;1.80;;;22.80;44.60;;;;;;4997348;28;20554;-69
2021/09/22 05:58:34;;;;;;;1.55;1.45;;;22.80;44.40;;;;;;4998371;28;20133;-65
2021/09/22 06:01:45;;;;;;;2.20;1.60;;;22.80;44.40;;;;;;4979705;28;20092;-67
2021/09/22 06:04:49;;;;;;;2.60;1.85;;;22.90;44.30;;;;;;4979142;28;20757;-69
2021/09/22 06:07:17;;;;;;;2.22;1.85;;;22.90;44.30;;;;;;4998721;28;20053;-64
2021/09/22 06:10:16;;;;;;;1.83;1.70;;;23.00;44.40;;;;;;4994906;28;20076;-70
2021/09/22 06:12:47;;;;;;;2.72;2.25;;;23.00;44.40;;;;;;4993448;28;20052;-64
2021/09/22 06:15:15;;;;;;;2.47;2.13;;;23.10;44.50;;;;;;5000476;28;20160;-65
2021/09/22 06:17:42;;;;;;;6.70;2.00;;;23.20;44.40;;;;;;5004795;28;20046;-64
2021/09/22 06:20:43;;;;;;;3.22;2.33;;;23.20;44.40;;;;;;4983578;28;20123;-64
2021/09/22 06:23:26;;;;;;;2.20;2.00;;;23.20;44.40;;;;;;4993296;28;20076;-62
2021/09/22 06:25:54;;;;;;;2.75;2.13;;;23.30;44.30;;;;;;4998615;28;20048;-62
2021/09/22 06:28:21;;;;;;;6.18;2.20;;;23.30;44.30;;;;;;5005299;28;20054;-66
2021/09/22 06:31:06;;;;;;;3.55;2.10;;;23.30;44.30;;;;;;4997586;28;20728;-68
2021/09/22 06:33:34;;;;;;;5.55;2.28;;;23.30;44.20;;;;;;4992195;28;20150;-67
2021/09/22 06:36:02;;;;;;;2.85;2.45;;;23.30;44.20;;;;;;4999558;28;20042;-65
2021/09/22 06:38:29;;;;;;;2.20;2.00;;;23.40;44.10;;;;;;5001220;28;20467;-70
2021/09/22 06:41:23;;;;;;;4.47;2.13;;;23.40;44.10;;;;;;4995119;28;21467;-72
2021/09/22 06:43:50;;;;;;;2.75;1.95;;;23.40;44.00;;;;;;4975442;28;20064;-70
2021/09/22 06:46:18;;;;;;;2.70;2.47;;;23.40;43.90;;;;;;5001992;28;20676;-69
2021/09/22 06:48:45;;;;;;;4.25;2.15;;;23.40;43.90;;;;;;5001498;28;20046;-74
2021/09/22 06:51:16;;;;;;;4.93;2.17;;;23.40;43.80;;;;;;4994616;28;20077;-71
2021/09/22 06:53:45;;;;;;;2.90;2.60;;;23.40;43.80;;;;;;4996738;28;20791;-67
2021/09/22 06:56:12;;;;;;;3.38;2.20;;;23.50;43.80;;;;;;5003138;28;20136;-74
2021/09/22 06:58:40;;;;;;;5.75;2.20;;;23.40;43.60;;;;;;5009145;28;20046;-68
2021/09/22 07:01:08;;;;;;;5.50;2.10;;;23.50;43.60;;;;;;4987131;28;20049;-69
2021/09/22 07:03:36;;;;;;;1.80;1.70;;;23.50;43.60;;;;;;5037756;23;20057;-65
2021/09/22 07:06:05;;;;;;;3.42;1.85;;;23.50;43.50;;;;;;5020546;28;20057;-71
2021/09/22 07:08:33;;;;;;;3.05;2.38;;;23.50;43.40;;;;;;5021708;28;20053;-68
2021/09/22 07:11:00;;;;;;;2.60;2.35;;;23.50;43.40;;;;;;4994515;28;20060;-67
2021/09/22 07:13:27;;;;;;;2.50;2.10;;;23.60;44.00;;;;;;5002406;28;20136;-67
2021/09/22 07:15:54;;;;;;;3.65;2.30;;;23.60;43.50;;;;;;5023188;28;20114;-67
2021/09/22 07:18:21;;;;;;;2.33;2.13;;;23.60;43.40;;;;;;5022054;28;20053;-68
2021/09/22 07:20:49;;;;;;;4.03;2.08;;;23.60;43.40;;;;;;5003507;28;20160;-70
2021/09/22 07:23:16;;;;;;;4.68;1.98;;;23.70;43.40;;;;;;5007946;28;20060;-70
2021/09/22 07:25:44;;;;;;;4.50;2.08;;;23.80;43.30;;;;;;5022512;28;20072;-71
2021/09/22 07:28:11;;;;;;;2.47;2.15;;;23.80;43.20;;;;;;5018037;28;20585;-73
2021/09/22 07:30:39;;;;;;;2.30;2.10;;;23.80;43.10;;;;;;5006972;28;20896;-71
2021/09/22 07:33:06;;;;;;;3.75;2.30;;;23.80;43.00;;;;;;5015569;28;20054;-73
2021/09/22 07:35:34;;;;;;;2.65;2.08;;;23.90;42.90;;;;;;5021281;28;20073;-68
2021/09/22 07:38:02;;;;;;;1.98;1.88;;;23.90;42.80;;;;;;5025122;28;20041;-70
2021/09/22 07:40:30;;;;;;;3.97;2.38;;;23.90;43.00;;;;;;5019426;28;20050;-68
2021/09/22 07:42:58;;;;;;;2.78;2.00;;;23.90;43.10;;;;;;5014803;28;20132;-69
2021/09/22 07:45:26;;;;;;;4.97;2.58;;;23.90;43.20;;;;;;5027319;28;20057;-68
2021/09/22 07:47:53;;;;;;;3.63;2.30;;;24.00;43.20;;;;;;5026871;28;20041;-68
2021/09/22 07:50:21;;;;;;;3.08;1.85;;;24.00;43.20;;;;;;5017578;28;20128;-66
2021/09/22 07:52:49;;;;;;;2.47;2.20;;;24.10;43.10;;;;;;4999777;28;20131;-70
2021/09/22 07:55:17;;;;;;;2.20;2.03;;;24.10;43.10;;;;;;5027787;28;20045;-70
2021/09/22 07:57:44;;;;;;;5.28;2.50;;;24.10;43.10;;;;;;5025595;28;20045;-70
2021/09/22 08:00:12;;;;;;;2.47;2.28;;;24.10;43.10;;;;;;5015623;28;20081;-70
2021/09/22 08:02:39;;;;;;;3.50;2.10;;;24.20;43.20;;;;;;5012124;28;20508;-68
2021/09/22 08:05:08;;;;;;;5.38;2.97;;;24.20;43.20;;;;;;5023963;28;20060;-69
2021/09/22 08:07:45;;;;;;;2.72;2.50;;;24.20;43.00;;;;;;5021665;28;20053;-71
2021/09/22 08:10:14;;;;;;;7.00;3.00;;;24.30;43.00;;;;;;5013383;28;20123;-72
2021/09/22 08:12:42;;;;;;;5.03;3.15;;;24.30;43.00;;;;;;5012248;28;20136;-71
2021/09/22 08:15:10;;;;;;;2.92;2.65;;;24.30;42.80;;;;;;5024170;28;20060;-66
2021/09/22 08:17:38;;;;;;;3.97;3.10;;;24.30;42.80;;;;;;5009736;28;20603;-67
2021/09/22 08:20:06;;;;;;;5.63;2.80;;;24.30;42.70;;;;;;5016531;28;20495;-67
2021/09/22 08:22:34;;;;;;;4.47;2.92;;;24.30;42.60;;;;;;4999179;28;20449;-65
2021/09/22 08:25:03;;;;;;;5.57;2.65;;;24.30;42.50;;;;;;5020401;28;20083;-70
2021/09/22 08:27:30;;;;;;;5.18;2.85;;;24.40;42.60;;;;;;5029869;28;20132;-70
2021/09/22 08:29:57;;;;;;;3.22;2.92;;;24.40;43.10;;;;;;5017562;28;20046;-71
2021/09/22 08:32:24;;;;;;;2.70;2.47;;;24.40;42.60;;;;;;5016721;28;20494;-70
2021/09/22 08:34:51;;;;;;;3.10;2.58;;;24.40;42.60;;;;;;5023131;28;20127;-67
2021/09/22 08:37:18;;;;;;;3.60;2.20;;;24.40;42.60;;;;;;5026105;28;20106;-66
2021/09/22 08:39:49;;;;;;;3.78;2.72;;;24.40;42.60;;;;;;5006694;28;20733;-68
2021/09/22 08:42:17;;;;;;;2.90;2.70;;;24.40;42.70;;;;;;4996905;28;20115;-69
2021/09/22 08:44:45;;;;;;;4.72;2.78;;;24.50;42.80;;;;;;5011146;28;20077;-67
2021/09/22 08:47:12;;;;;;;8.35;2.80;;;24.50;42.70;;;;;;5021905;28;20053;-71
2021/09/22 08:49:41;;;;;;;2.60;2.40;;;24.50;42.60;;;;;;5024867;28;20049;-66
2021/09/22 08:52:09;;;;;;;3.17;2.45;;;24.50;42.60;;;;;;5008409;28;20102;-71
2021/09/22 08:54:36;;;;;;;3.97;2.97;;;24.50;42.50;;;;;;5022352;28;20059;-67
2021/09/22 08:57:05;;;;;;;5.35;2.58;;;24.50;42.40;;;;;;5025276;28;20486;-69
2021/09/22 08:59:32;;;;;;;4.38;2.45;;;24.60;42.40;;;;;;5008141;28;20072;-69
2021/09/22 09:02:16;;;;;;;5.68;2.60;;;24.60;42.40;;;;;;5003322;28;20977;-66
2021/09/22 09:05:00;;;;;;;7.57;2.80;;;24.60;42.40;;;;;;5024711;28;20050;-67
2021/09/22 09:07:30;;;;;;;3.10;2.80;;;24.60;42.30;;;;;;5028466;28;20289;-64
2021/09/22 09:10:07;;;;;;;3.35;2.65;;;24.60;42.20;;;;;;4987117;28;20084;-66
2021/09/22 09:12:35;;;;;;;2.72;2.50;;;24.60;42.20;;;;;;4981766;28;20057;-68
2021/09/22 09:15:09;;;;;;;4.50;2.33;;;24.60;42.20;;;;;;5007980;28;20053;-65
2021/09/22 09:17:47;;;;;;;5.78;2.60;;;24.60;42.20;;;;;;5023947;28;20924;-65
2021/09/22 09:20:19;;;;;;;3.17;2.70;;;24.70;42.20;;;;;;5014587;28;20107;-65
2021/09/22 09:23:07;;;;;;;4.28;2.78;;;24.70;42.20;;;;;;5011753;28;20041;-64
2021/09/22 09:25:42;;;;;;;2.60;2.40;;;24.70;42.10;;;;;;5010526;28;20050;-65
2021/09/22 09:28:23;;;;;;;5.93;2.63;;;24.70;42.10;;;;;;5026692;28;20077;-65
2021/09/22 09:30:55;;;;;;;3.05;2.70;;;24.70;42.00;;;;;;5008383;28;20120;-62
2021/09/22 09:33:38;;;;;;;2.78;2.58;;;24.70;42.00;;;;;;5018220;28;20153;-64
2021/09/22 09:36:33;;;;;;;2.83;2.25;;;24.70;42.00;;;;;;5021623;28;20049;-64
2021/09/22 09:39:20;;;;;;;2.85;2.50;;;24.80;42.10;;;;;;4996597;28;20056;-61
2021/09/22 09:41:53;;;;;;;4.00;2.80;;;24.70;42.10;;;;;;4976547;28;20061;-63
2021/09/22 09:44:25;;;;;;;2.95;2.45;;;24.70;42.20;;;;;;5004822;28;20057;-65
2021/09/22 09:46:56;;;;;;;3.83;2.20;;;24.70;42.20;;;;;;5007521;28;20100;-66
2021/09/22 09:49:28;;;;;;;2.20;1.98;;;24.70;42.30;;;;;;5021024;28;20053;-63
2021/09/22 09:52:00;;;;;;;4.03;2.58;;;24.70;42.30;;;;;;4984676;28;20077;-61
2021/09/22 09:54:35;;;;;;;5.13;2.45;;;24.70;42.40;;;;;;5025552;28;20073;-64
2021/09/22 09:57:14;;;;;;;2.80;2.60;;;24.70;42.50;;;;;;5022240;28;20132;-64
2021/09/22 09:59:48;;;;;;;3.08;2.50;;;24.70;42.50;;;;;;5017884;28;20099;-66
2021/09/22 10:02:31;;;;;;;2.47;2.25;;;24.70;42.50;;;;;;5010509;28;20050;-64
2021/09/22 10:05:00;;;;;;;2.38;2.17;;;24.70;42.50;;;;;;5018568;28;20048;-63
2021/09/22 10:07:29;;;;;;;5.88;3.05;;;24.70;42.50;;;;;;5022128;28;20578;-73
2021/09/22 10:09:57;;;;;;;4.13;3.70;;;24.70;42.90;;;;;;5018067;28;20615;-74
2021/09/22 10:12:24;;;;;;;4.28;3.88;;;24.70;41.90;;;;;;5011118;28;20060;-73
2021/09/22 10:14:53;;;;;;;3.05;2.80;;;24.60;41.40;;;;;;5028932;28;20045;-73
2021/09/22 10:17:24;;;;;;;3.55;3.17;;;24.50;41.70;;;;;;5022719;28;20051;-72
2021/09/22 10:19:53;;;;;;;2.95;2.60;;;24.50;42.00;;;;;;5010936;28;20060;-72
2021/09/22 10:22:20;;;;;;;4.90;3.75;;;24.50;42.10;;;;;;5010244;28;20077;-72
2021/09/22 10:24:49;;;;;;;6.13;3.90;;;24.50;41.50;;;;;;5021178;28;20776;-75
2021/09/22 10:27:20;;;;;;;5.32;4.57;;;24.40;41.40;;;;;;5022344;28;20484;-72
2021/09/22 10:29:57;;;;;;;;;;;24.30;41.40;;;;;;5017071;28;20391;-74
2021/09/22 10:32:46;;;;;;;4.00;3.60;;;24.10;41.10;;;;;;4996160;28;20465;-72
2021/09/22 10:35:39;;;;;;;3.30;3.00;;;24.00;41.80;;;;;;5004683;28;20136;-72
2021/09/22 10:38:42;;;;;;;6.97;4.30;;;23.90;42.20;;;;;;5002919;28;20045;-71
2021/09/22 10:41:11;;;;;;;8.63;3.95;;;23.90;42.30;;;;;;4977525;28;20053;-72
2021/09/22 10:43:41;;;;;;;4.57;3.88;;;23.90;42.60;;;;;;4999830;28;20131;-72
2021/09/22 10:46:12;;;;;;;5.60;4.18;;;23.90;42.90;;;;;;5021623;28;20448;-69
2021/09/22 10:49:01;;;;;;;6.82;4.40;;;23.90;43.00;;;;;;5021247;28;20125;-70
2021/09/22 10:51:35;;;;;;;4.85;4.35;;;23.80;43.30;;;;;;5003636;28;20077;-69
2021/09/22 10:54:11;;;;;;;5.15;3.83;;;23.80;43.50;;;;;;5019681;28;20153;-70
2021/09/22 10:56:54;;;;;;;4.40;4.00;;;23.80;43.60;;;;;;5014943;28;20501;-68
2021/09/22 10:59:33;;;;;;;3.63;3.13;;;23.80;43.80;;;;;;5017835;28;20053;-71
2021/09/22 11:02:01;;;;;;;4.75;3.42;;;23.80;44.00;;;;;;4982878;28;20052;-69
2021/09/22 11:04:54;;;;;;;8.68;5.00;;;23.80;43.90;;;;;;5019420;28;20057;-72
2021/09/22 11:07:23;;;;;;;5.28;4.32;;;23.80;43.70;;;;;;5008072;28;20147;-64
2021/09/22 11:09:51;;;;;;;3.70;3.22;;;23.90;43.70;;;;;;5014621;28;20053;-65
2021/09/22 11:12:19;;;;;;;4.28;3.88;;;23.80;44.00;;;;;;5006674;28;21142;-67
2021/09/22 11:14:50;;;;;;;3.85;3.40;;;23.90;44.10;;;;;;5020676;28;20045;-66
2021/09/22 11:17:24;;;;;;;4.22;2.80;;;23.90;44.00;;;;;;5020718;28;20157;-65
2021/09/22 11:19:54;;;;;;;3.90;2.92;;;24.00;43.90;;;;;;4996132;28;20440;-65
2021/09/22 11:22:25;;;;;;;4.03;3.63;;;24.10;43.90;;;;;;5009591;28;20069;-65
2021/09/22 11:24:56;;;;;;;3.17;2.97;;;24.20;44.00;;;;;;5018866;28;20116;-66
2021/09/22 11:27:24;;;;;;;5.90;3.20;;;24.30;44.00;;;;;;5022568;28;20049;-67
2021/09/22 11:29:58;;;;;;;3.60;2.70;;;24.30;43.90;;;;;;5019353;28;21157;-63
2021/09/22 11:32:39;;;;;;;4.07;2.75;;;24.40;43.60;;;;;;4993580;28;20069;-64
2021/09/22 11:35:15;;;;;;;3.53;3.10;;;24.50;43.70;;;;;;5018880;28;20053;-65
2021/09/22 11:37:46;;;;;;;6.15;3.38;;;24.60;43.80;;;;;;5025676;28;20049;-66
2021/09/22 11:40:31;;;;;;;3.75;2.85;;;24.60;43.80;;;;;;5014264;28;20049;-66
2021/09/22 11:43:06;;;;;;;5.22;3.13;;;24.60;43.60;;;;;;5013767;28;20494;-65
2021/09/22 11:45:37;;;;;;;4.70;2.95;;;24.60;43.70;;;;;;5020149;28;20127;-67
2021/09/22 11:48:12;;;;;;;3.05;2.70;;;24.60;43.50;;;;;;5022394;28;20099;-67
2021/09/22 11:50:47;;;;;;;3.15;2.90;;;24.60;43.50;;;;;;5006035;28;20049;-68
2021/09/22 11:53:17;;;;;;;2.97;2.78;;;24.60;43.50;;;;;;5020084;28;20046;-67
2021/09/22 11:55:46;;;;;;;;;;;24.60;43.50;;;;;;5022026;28;20045;-67
2021/09/22 11:58:15;;;;;;;3.10;2.78;;;24.50;43.40;;;;;;5025722;28;20039;-67
2021/09/22 12:00:44;;;;;;;4.70;2.72;;;24.50;43.20;;;;;;5006321;28;20055;-68
2021/09/22 12:03:13;;;;;;;2.75;2.55;;;24.50;43.20;;;;;;4999707;28;20804;-65
2021/09/22 12:05:43;;;;;;;2.53;2.40;;;24.50;43.10;;;;;;5003966;28;20524;-66
2021/09/22 12:08:11;;;;;;;4.88;2.70;;;24.60;43.30;;;;;;5021059;28;20119;-65
2021/09/22 12:10:44;;;;;;;3.00;2.70;;;24.70;43.20;;;;;;4992450;28;20057;-69
2021/09/22 12:13:11;;;;;;;2.42;2.20;;;24.70;43.10;;;;;;5017812;28;20486;-68
2021/09/22 12:15:39;;;;;;;3.15;2.72;;;24.70;42.90;;;;;;5025012;28;20053;-66
2021/09/22 12:18:06;;;;;;;5.43;2.60;;;24.80;42.80;;;;;;5027336;28;20486;-67
2021/09/22 12:20:37;;;;;;;2.85;2.40;;;24.80;42.60;;;;;;5011541;28;20524;-70
2021/09/22 12:23:06;;;;;;;2.63;2.38;;;24.90;42.40;;;;;;5014890;28;20098;-66
2021/09/22 12:25:36;;;;;;;3.22;2.92;;;24.90;42.10;;;;;;5023108;28;20497;-64
2021/09/22 12:28:04;;;;;;;2.50;2.30;;;25.00;42.00;;;;;;5020971;28;20128;-67
2021/09/22 12:30:38;;;;;;;2.53;2.20;;;25.10;42.00;;;;;;5012013;28;20076;-65
2021/09/22 12:33:09;;;;;;;2.85;2.20;;;25.10;41.90;;;;;;5018377;28;20050;-67
2021/09/22 12:35:38;;;;;;;2.40;2.20;;;25.20;42.00;;;;;;5024191;28;20938;-67
2021/09/22 12:38:08;;;;;;;2.75;2.33;;;25.10;41.80;;;;;;5026579;28;20049;-67
2021/09/22 12:40:38;;;;;;;2.17;2.08;;;25.10;41.70;;;;;;5011148;28;20124;-65
2021/09/22 12:43:23;;;;;;;2.95;2.33;;;25.10;41.80;;;;;;5017858;28;20059;-66
2021/09/22 12:46:03;;;;;;;7.45;2.15;;;25.10;41.90;;;;;;5022013;28;20453;-68
2021/09/22 12:48:32;;;;;;;6.40;1.98;;;25.10;41.90;;;;;;5026815;28;20129;-67
2021/09/22 12:50:59;;;;;;;2.55;2.08;;;25.00;41.80;;;;;;5010783;28;21443;-67
2021/09/22 12:53:31;;;;;;;4.07;2.20;;;25.00;42.00;;;;;;5022073;28;20490;-64
2021/09/22 12:56:19;;;;;;;2.50;2.30;;;24.90;42.00;;;;;;5026973;28;20057;-66
2021/09/22 12:58:47;;;;;;;2.03;1.92;;;24.90;42.80;;;;;;5028204;28;20041;-67
2021/09/22 13:01:15;;;;;;;2.08;1.98;;;24.80;42.20;;;;;;5010886;28;20123;-65
2021/09/22 13:03:50;;;;;;;2.00;1.85;;;24.80;42.40;;;;;;5020634;28;20048;-74
2021/09/22 13:06:21;;;;;;;3.08;2.40;;;24.80;42.40;;;;;;5023083;28;20050;-72
2021/09/22 13:09:01;;;;;;;2.53;2.33;;;24.70;41.90;;;;;;5026898;28;20243;-72
2021/09/22 13:11:36;;;;;;;2.23;2.03;;;24.70;42.20;;;;;;4989228;28;20197;-72
2021/09/22 13:14:13;;;;;;;2.40;2.20;;;24.60;41.90;;;;;;5028018;28;20038;-72
2021/09/22 13:16:57;;;;;;;2.15;2.03;;;24.50;41.00;;;;;;5025687;28;20077;-73